createdAt,value
2022-09-20T00:01:12.945Z,8.87
2022-09-20T00:03:44.713Z,8.87
2022-09-20T00:06:19.721Z,8.85
2022-09-20T00:08:46.891Z,8.80
2022-09-20T00:11:16.877Z,8.82
2022-09-20T00:13:45.294Z,8.85
2022-09-20T00:16:15.027Z,8.84
2022-09-20T00:18:41.918Z,8.87
2022-09-20T00:21:15.838Z,8.85
2022-09-20T00:23:42.337Z,8.84
2022-09-20T00:26:08.803Z,8.83
2022-09-20T00:28:35.218Z,8.78
2022-09-20T00:31:01.683Z,8.87
2022-09-20T00:33:46.807Z,8.88
2022-09-20T00:36:13.415Z,8.85
2022-09-20T00:38:39.832Z,8.90
2022-09-20T00:41:06.285Z,8.96
2022-09-20T00:43:46.442Z,8.84
2022-09-20T00:46:41.482Z,8.93
2022-09-20T00:49:21.653Z,8.85
2022-09-20T00:51:56.774Z,8.88
2022-09-20T00:54:25.403Z,8.86
2022-09-20T00:56:52.413Z,8.89
2022-09-20T00:59:25.395Z,8.81
2022-09-20T01:02:03.084Z,8.89
2022-09-20T01:04:30.397Z,8.87
2022-09-20T01:07:02.194Z,8.96
2022-09-20T01:09:29.039Z,8.92
2022-09-20T01:11:57.578Z,8.84
2022-09-20T01:14:26.471Z,8.85
2022-09-20T01:17:02.142Z,8.99
2022-09-20T01:19:39.986Z,8.88
2022-09-20T01:22:25.115Z,9.00
2022-09-20T01:25:09.394Z,9.04
2022-09-20T01:27:40.391Z,8.92
2022-09-20T01:30:13.761Z,8.88
2022-09-20T01:32:52.442Z,8.94
2022-09-20T01:35:21.379Z,8.98
2022-09-20T01:38:18.406Z,8.96
2022-09-20T01:41:15.084Z,9.02
2022-09-20T01:43:53.118Z,9.12
2022-09-20T01:46:32.914Z,9.16
2022-09-20T01:49:30.651Z,9.01
2022-09-20T01:52:06.150Z,9.08
2022-09-20T01:54:58.068Z,9.05
2022-09-20T01:58:07.190Z,9.07
2022-09-20T02:00:57.865Z,9.00
2022-09-20T02:03:49.022Z,9.01
2022-09-20T02:06:24.346Z,9.01
2022-09-20T02:09:14.458Z,9.00
2022-09-20T02:12:14.157Z,9.10
2022-09-20T02:14:53.539Z,9.11
2022-09-20T02:17:57.007Z,9.09
2022-09-20T02:20:44.051Z,9.06
2022-09-20T02:23:35.529Z,9.14
2022-09-20T02:26:32.242Z,9.09
2022-09-20T02:29:06.784Z,9.11
2022-09-20T02:32:10.733Z,9.11
2022-09-20T02:35:05.484Z,9.12
2022-09-20T02:37:50.166Z,9.16
2022-09-20T02:40:25.679Z,8.89
2022-09-20T02:43:07.575Z,8.97
2022-09-20T02:45:58.897Z,8.87
2022-09-20T02:48:38.449Z,8.72
2022-09-20T02:51:30.913Z,8.71
2022-09-20T02:54:08.209Z,8.54
2022-09-20T02:56:45.762Z,8.54
2022-09-20T02:59:33.407Z,8.54
2022-09-20T03:02:28.188Z,8.53
2022-09-20T03:05:14.405Z,8.45
2022-09-20T03:08:25.280Z,8.43
2022-09-20T03:11:18.591Z,8.42
2022-09-20T03:14:00.746Z,8.33
2022-09-20T03:16:58.735Z,8.31
2022-09-20T03:19:36.554Z,8.24
2022-09-20T03:22:24.023Z,8.38
2022-09-20T03:25:14.895Z,8.35
2022-09-20T03:28:03.779Z,8.28
2022-09-20T03:31:31.254Z,8.27
2022-09-20T03:34:22.213Z,8.34
2022-09-20T03:37:18.955Z,8.33
2022-09-20T03:40:07.569Z,8.40
2022-09-20T03:42:39.251Z,8.33
2022-09-20T03:45:14.666Z,8.51
2022-09-20T03:48:18.109Z,8.59
2022-09-20T03:51:20.394Z,8.60
2022-09-20T03:54:03.733Z,8.65
2022-09-20T03:56:38.942Z,8.72
2022-09-20T03:59:31.814Z,8.71
2022-09-20T04:02:21.864Z,8.66
2022-09-20T04:04:54.590Z,8.65
2022-09-20T04:07:33.357Z,8.64
2022-09-20T04:10:18.707Z,8.65
2022-09-20T04:13:22.761Z,8.59
2022-09-20T04:16:04.353Z,8.57
2022-09-20T04:18:49.707Z,8.51
2022-09-20T04:21:34.482Z,8.59
2022-09-20T04:24:04.567Z,8.57
2022-09-20T04:26:41.545Z,8.59
2022-09-20T04:29:34.087Z,8.62
2022-09-20T04:32:10.076Z,8.52
2022-09-20T04:35:04.400Z,8.45
2022-09-20T04:37:33.598Z,8.40
2022-09-20T04:40:21.080Z,8.39
2022-09-20T04:43:17.452Z,8.42
2022-09-20T04:46:03.062Z,8.36
2022-09-20T04:48:57.681Z,8.30
2022-09-20T04:51:36.826Z,8.33
2022-09-20T04:54:15.503Z,8.38
2022-09-20T04:56:44.782Z,8.43
2022-09-20T04:59:21.910Z,8.47
2022-09-20T05:01:59.902Z,8.37
2022-09-20T05:04:29.596Z,8.45
2022-09-20T05:07:15.232Z,8.43
2022-09-20T05:10:08.374Z,8.45
2022-09-20T05:12:54.602Z,8.55
2022-09-20T05:15:24.156Z,8.45
2022-09-20T05:18:15.370Z,8.47
2022-09-20T05:20:59.367Z,8.51
2022-09-20T05:23:50.914Z,8.75
2022-09-20T05:26:29.235Z,8.61
2022-09-20T05:29:26.790Z,8.60
2022-09-20T05:32:06.589Z,8.68
2022-09-20T05:34:44.619Z,8.62
2022-09-20T05:37:34.874Z,8.80
2022-09-20T05:40:46.277Z,8.84
2022-09-20T05:43:27.783Z,8.99
2022-09-20T05:46:03.307Z,8.81
2022-09-20T05:48:41.950Z,8.85
2022-09-20T05:51:31.647Z,8.88
2022-09-20T05:54:02.942Z,8.79
2022-09-20T05:57:02.895Z,8.88
2022-09-20T05:59:38.950Z,8.84
2022-09-20T06:02:17.794Z,8.88
2022-09-20T06:04:52.722Z,9.06
2022-09-20T06:07:29.077Z,9.07
2022-09-20T06:10:07.666Z,8.98
2022-09-20T06:12:54.738Z,8.96
2022-09-20T06:15:33.334Z,9.08
2022-09-20T06:18:21.973Z,8.90
2022-09-20T06:21:25.517Z,9.24
2022-09-20T06:23:58.538Z,9.48
2022-09-20T06:26:28.548Z,9.54
2022-09-20T06:29:00.592Z,9.72
2022-09-20T06:31:27.625Z,9.69
2022-09-20T06:34:00.502Z,9.91
2022-09-20T06:37:09.401Z,10.09
2022-09-20T06:40:29.650Z,10.31
2022-09-20T06:42:57.962Z,10.18
2022-09-20T06:45:24.418Z,10.14
2022-09-20T06:47:50.812Z,10.40
2022-09-20T06:50:18.115Z,10.29
2022-09-20T06:52:46.581Z,10.26
2022-09-20T06:55:23.319Z,10.46
2022-09-20T06:57:52.664Z,10.30
2022-09-20T07:00:19.653Z,10.44
2022-09-20T07:02:46.705Z,10.96
2022-09-20T07:05:17.898Z,10.62
2022-09-20T07:07:44.627Z,10.44
2022-09-20T07:10:12.089Z,10.47
2022-09-20T07:12:38.573Z,10.62
2022-09-20T07:15:06.248Z,10.72
2022-09-20T07:17:33.582Z,11.09
2022-09-20T07:20:00.552Z,11.13
2022-09-20T07:22:27.789Z,10.68
2022-09-20T07:24:54.169Z,10.93
2022-09-20T07:27:21.286Z,10.87
2022-09-20T07:29:47.754Z,11.05
2022-09-20T07:32:15.388Z,11.10
2022-09-20T07:34:41.829Z,11.17
2022-09-20T07:37:08.274Z,11.50
2022-09-20T07:39:34.670Z,11.16
2022-09-20T07:42:06.047Z,11.13
2022-09-20T07:44:32.468Z,10.99
2022-09-20T07:46:59.615Z,11.15
2022-09-20T07:49:28.669Z,11.74
2022-09-20T07:51:55.194Z,11.92
2022-09-20T07:54:21.645Z,11.84
2022-09-20T07:56:48.488Z,11.51
2022-09-20T07:59:15.274Z,11.90
2022-09-20T08:01:42.706Z,11.99
2022-09-20T08:04:10.351Z,12.08
2022-09-20T08:06:41.257Z,11.59
2022-09-20T08:09:11.083Z,11.86
2022-09-20T08:11:39.620Z,12.06
2022-09-20T08:14:08.111Z,12.10
2022-09-20T08:16:45.613Z,12.28
2022-09-20T08:19:18.341Z,12.24
2022-09-20T08:21:45.188Z,12.24
2022-09-20T08:24:11.683Z,12.16
2022-09-20T08:26:38.166Z,12.37
2022-09-20T08:29:08.528Z,12.42
2022-09-20T08:31:38.394Z,12.33
2022-09-20T08:34:06.972Z,12.36
2022-09-20T08:36:36.675Z,12.84
2022-09-20T08:42:12.433Z,13.23
2022-09-20T08:45:00.060Z,13.20
2022-09-20T08:47:31.191Z,12.38
2022-09-20T08:49:58.863Z,12.55
2022-09-20T08:52:37.442Z,12.49
2022-09-20T08:55:18.211Z,12.27
2022-09-20T08:57:49.235Z,12.32
2022-09-20T09:00:21.357Z,12.47
2022-09-20T09:02:51.614Z,12.71
2022-09-20T09:05:31.742Z,13.00
2022-09-20T09:08:00.730Z,13.40
2022-09-20T09:10:34.552Z,13.89
2022-09-20T09:13:01.199Z,13.18
2022-09-20T09:15:32.714Z,13.52
2022-09-20T09:17:59.370Z,13.92
2022-09-20T09:20:26.292Z,14.35
2022-09-20T09:23:05.128Z,14.54
2022-09-20T09:25:41.187Z,14.21
2022-09-20T09:28:07.540Z,13.71
2022-09-20T09:30:45.011Z,13.64
2022-09-20T09:33:15.746Z,13.11
2022-09-20T09:35:43.408Z,13.70
2022-09-20T09:38:24.124Z,13.75
2022-09-20T09:40:59.761Z,14.05
2022-09-20T09:43:32.164Z,13.80
2022-09-20T09:46:19.077Z,13.80
2022-09-20T09:48:49.990Z,13.97
2022-09-20T09:51:18.854Z,13.82
2022-09-20T09:53:47.430Z,14.18
2022-09-20T09:56:30.114Z,14.33
2022-09-20T09:59:33.664Z,13.86
2022-09-20T10:02:19.172Z,14.37
2022-09-20T10:05:03.152Z,14.46
2022-09-20T10:07:49.729Z,14.62
2022-09-20T10:10:32.396Z,14.90
2022-09-20T10:13:38.267Z,14.96
2022-09-20T10:16:25.220Z,15.10
2022-09-20T10:18:55.428Z,14.45
2022-09-20T10:21:56.965Z,14.51
2022-09-20T10:24:57.292Z,14.78
2022-09-20T10:27:38.885Z,15.12
2022-09-20T10:30:17.005Z,15.53
2022-09-20T10:33:03.653Z,15.45
2022-09-20T10:35:42.358Z,15.18
2022-09-20T10:38:21.688Z,15.05
2022-09-20T10:41:44.643Z,15.10
2022-09-20T10:44:20.107Z,15.21
2022-09-20T10:46:53.006Z,15.44
2022-09-20T10:49:36.864Z,15.66
2022-09-20T10:52:17.325Z,15.71
2022-09-20T10:55:06.320Z,15.04
2022-09-20T10:58:04.408Z,14.97
2022-09-20T11:01:02.494Z,14.72
2022-09-20T11:03:47.286Z,14.90
2022-09-20T11:06:22.026Z,14.90
2022-09-20T11:08:55.731Z,14.21
2022-09-20T11:11:32.849Z,14.53
2022-09-20T11:14:09.806Z,15.41
2022-09-20T11:16:57.835Z,15.74
2022-09-20T11:19:48.446Z,16.86
2022-09-20T11:22:32.519Z,16.17
2022-09-20T11:25:18.031Z,15.46
2022-09-20T11:27:53.185Z,13.75
2022-09-20T11:30:24.138Z,13.37
2022-09-20T11:33:00.548Z,13.56
2022-09-20T11:35:34.790Z,13.92
2022-09-20T11:38:17.425Z,13.98
2022-09-20T11:40:52.215Z,15.07
2022-09-20T11:43:19.826Z,15.55
2022-09-20T11:45:49.875Z,14.89
2022-09-20T11:48:29.666Z,14.02
2022-09-20T11:51:16.599Z,13.51
2022-09-20T11:53:47.837Z,12.89
2022-09-20T11:56:24.914Z,12.36
2022-09-20T11:58:57.795Z,12.05
2022-09-20T12:01:50.412Z,11.81
2022-09-20T12:04:34.760Z,11.33
2022-09-20T12:07:26.923Z,11.13
2022-09-20T12:10:02.932Z,11.35
2022-09-20T12:12:51.105Z,11.50
2022-09-20T12:15:31.459Z,12.81
2022-09-20T12:17:57.797Z,12.89
2022-09-20T12:20:53.301Z,13.14
2022-09-20T12:23:41.207Z,13.43
2022-09-20T12:26:10.721Z,13.90
2022-09-20T12:28:40.074Z,13.79
2022-09-20T12:31:18.963Z,12.96
2022-09-20T12:34:04.606Z,14.35
2022-09-20T12:36:36.107Z,13.25
2022-09-20T12:39:06.604Z,14.16
2022-09-20T12:41:53.941Z,14.11
2022-09-20T12:44:35.497Z,14.43
2022-09-20T12:47:08.350Z,14.38
2022-09-20T12:49:59.470Z,14.26
2022-09-20T12:52:49.345Z,14.01
2022-09-20T12:55:30.751Z,13.89
2022-09-20T12:58:15.291Z,13.77
2022-09-20T13:00:47.077Z,13.56
2022-09-20T13:03:37.894Z,13.59
2022-09-20T13:06:07.321Z,13.60
2022-09-20T13:08:47.961Z,12.90
2022-09-20T13:11:18.689Z,12.86
2022-09-20T13:13:50.206Z,13.21
2022-09-20T13:16:24.521Z,13.03
2022-09-20T13:19:05.664Z,13.14
2022-09-20T13:21:34.855Z,13.54
2022-09-20T13:24:02.319Z,13.54
2022-09-20T13:26:33.958Z,13.09
2022-09-20T13:29:02.305Z,12.84
2022-09-20T13:31:31.821Z,12.78
2022-09-20T13:34:25.841Z,13.05
2022-09-20T13:36:58.377Z,12.81
2022-09-20T13:39:36.202Z,12.70
2022-09-20T13:42:09.086Z,12.75
2022-09-20T13:44:37.258Z,12.35
2022-09-20T13:47:22.315Z,12.57
2022-09-20T13:49:49.231Z,12.62
2022-09-20T13:52:34.360Z,12.61
2022-09-20T13:55:19.162Z,12.87
2022-09-20T13:57:48.043Z,13.03
2022-09-20T14:00:15.690Z,12.94
2022-09-20T14:02:42.229Z,12.93
2022-09-20T14:05:17.063Z,13.01
2022-09-20T14:07:46.082Z,12.91
2022-09-20T14:10:37.054Z,12.82
2022-09-20T14:13:07.326Z,12.93
2022-09-20T14:15:37.621Z,13.10
2022-09-20T14:18:07.040Z,12.98
2022-09-20T14:20:34.423Z,13.08
2022-09-20T14:23:01.466Z,13.12
2022-09-20T14:25:28.399Z,12.92
2022-09-20T14:28:18.676Z,13.19
2022-09-20T14:30:47.469Z,12.97
2022-09-20T14:33:20.754Z,12.85
2022-09-20T14:35:50.257Z,12.84
2022-09-20T14:38:21.535Z,13.18
2022-09-20T14:40:49.088Z,13.13
2022-09-20T14:43:24.086Z,13.40
2022-09-20T14:45:59.146Z,13.66
2022-09-20T14:48:25.515Z,13.40
2022-09-20T14:51:11.008Z,13.65
2022-09-20T14:53:38.301Z,13.38
2022-09-20T14:56:04.899Z,13.36
2022-09-20T14:58:32.270Z,13.20
2022-09-20T15:01:15.495Z,13.27
2022-09-20T15:03:42.154Z,13.29
2022-09-20T15:06:13.549Z,13.31
2022-09-20T15:08:45.470Z,13.58
2022-09-20T15:11:14.801Z,13.48
2022-09-20T15:13:41.322Z,13.41
2022-09-20T15:16:08.334Z,13.61
2022-09-20T15:18:41.865Z,13.62
2022-09-20T15:21:10.757Z,13.81
2022-09-20T15:23:38.247Z,13.85
2022-09-20T15:26:05.836Z,13.91
2022-09-20T15:28:34.099Z,13.98
2022-09-20T15:31:00.584Z,14.19
2022-09-20T15:33:30.158Z,14.06
2022-09-20T15:35:56.571Z,14.30
2022-09-20T15:38:26.738Z,14.40
2022-09-20T15:40:53.303Z,14.03
2022-09-20T15:43:24.002Z,13.89
2022-09-20T15:45:55.354Z,13.74
2022-09-20T15:48:24.450Z,13.93
2022-09-20T15:51:02.429Z,13.92
2022-09-20T15:53:36.826Z,13.56
2022-09-20T15:56:12.994Z,13.44
2022-09-20T15:58:39.389Z,13.23
2022-09-20T16:01:08.131Z,13.19
2022-09-20T16:03:36.116Z,13.05
2022-09-20T16:06:05.812Z,13.09
2022-09-20T16:08:33.532Z,12.96
2022-09-20T16:11:00.447Z,12.67
2022-09-20T16:13:27.671Z,12.70
2022-09-20T16:15:59.440Z,12.63
2022-09-20T16:18:45.414Z,12.42
2022-09-20T16:21:14.186Z,12.29
2022-09-20T16:23:41.925Z,12.17
2022-09-20T16:26:12.852Z,12.13
2022-09-20T16:28:47.283Z,12.09
2022-09-20T16:31:40.786Z,12.05
2022-09-20T16:34:13.411Z,11.95
2022-09-20T16:36:44.369Z,11.87
2022-09-20T16:39:12.528Z,11.92
2022-09-20T16:41:39.557Z,11.91
2022-09-20T16:44:06.318Z,11.88
2022-09-20T16:46:37.098Z,11.83
2022-09-20T16:49:06.998Z,11.87
2022-09-20T16:51:35.913Z,11.85
2022-09-20T16:54:11.606Z,11.88
2022-09-20T16:56:39.906Z,11.85
2022-09-20T16:59:07.535Z,11.70
2022-09-20T17:01:36.690Z,11.70
2022-09-20T17:04:07.265Z,11.63
2022-09-20T17:06:36.327Z,11.46
2022-09-20T17:09:03.966Z,11.44
2022-09-20T17:11:32.840Z,11.31
2022-09-20T17:14:00.137Z,11.30
2022-09-20T17:16:32.242Z,11.19
2022-09-20T17:19:01.157Z,11.22
2022-09-20T17:21:29.339Z,11.29
2022-09-20T17:23:58.440Z,11.14
2022-09-20T17:26:26.071Z,11.08
2022-09-20T17:28:56.268Z,11.12
2022-09-20T17:31:25.347Z,10.95
2022-09-20T17:33:52.155Z,10.94
2022-09-20T17:36:21.445Z,10.84
2022-09-20T17:38:54.289Z,10.85
2022-09-20T17:41:21.777Z,10.89
2022-09-20T17:43:52.477Z,10.90
2022-09-20T17:46:22.779Z,10.78
2022-09-20T17:48:52.261Z,10.76
2022-09-20T17:51:19.916Z,10.83
2022-09-20T17:53:46.698Z,10.64
2022-09-20T17:56:14.014Z,10.49
2022-09-20T17:58:41.675Z,10.64
2022-09-20T18:01:12.896Z,10.48
2022-09-20T18:03:42.563Z,10.50
2022-09-20T18:06:22.368Z,10.59
2022-09-20T18:08:54.006Z,10.61
2022-09-20T18:11:24.953Z,10.49
2022-09-20T18:13:51.602Z,10.54
2022-09-20T18:16:18.420Z,10.37
2022-09-20T18:18:46.501Z,10.27
2022-09-20T18:21:21.625Z,10.29
2022-09-20T18:23:49.066Z,10.14
2022-09-20T18:26:26.917Z,10.08
2022-09-20T18:29:05.551Z,10.02
2022-09-20T18:31:43.184Z,9.89
2022-09-20T18:34:18.127Z,9.90
2022-09-20T18:36:48.417Z,9.83
2022-09-20T18:39:14.878Z,9.79
2022-09-20T18:41:42.758Z,9.64
2022-09-20T18:44:12.435Z,9.75
2022-09-20T18:46:40.592Z,9.72
2022-09-20T18:49:09.660Z,9.72
2022-09-20T18:51:39.760Z,9.71
2022-09-20T18:54:09.915Z,9.71
2022-09-20T18:56:39.285Z,9.63
2022-09-20T18:59:08.357Z,9.52
2022-09-20T19:01:44.937Z,9.50
2022-09-20T19:04:29.914Z,9.54
2022-09-20T19:07:21.116Z,9.51
2022-09-20T19:10:05.840Z,9.62
2022-09-20T19:12:54.469Z,9.55
2022-09-20T19:15:37.553Z,9.57
2022-09-20T19:18:44.662Z,9.54
2022-09-20T19:21:43.207Z,9.36
2022-09-20T19:24:18.277Z,9.36
2022-09-20T19:26:45.662Z,9.26
2022-09-20T19:29:21.767Z,9.19
2022-09-20T19:31:50.849Z,9.17
2022-09-20T19:34:23.117Z,9.09
2022-09-20T19:37:18.646Z,8.94
2022-09-20T19:40:36.488Z,8.99
2022-09-20T19:43:05.672Z,8.94
2022-09-20T19:45:56.764Z,8.81
2022-09-20T19:48:28.953Z,8.67
2022-09-20T19:50:57.362Z,8.70
2022-09-20T19:53:28.150Z,8.67
2022-09-20T19:56:03.494Z,8.65
2022-09-20T19:58:30.221Z,8.60
2022-09-20T20:00:58.357Z,8.59
2022-09-20T20:03:27.417Z,8.41
2022-09-20T20:06:07.854Z,8.32
2022-09-20T20:08:43.202Z,8.31
2022-09-20T20:11:21.086Z,8.32
2022-09-20T20:14:08.994Z,8.35
2022-09-20T20:16:54.280Z,8.24
2022-09-20T20:19:42.126Z,8.26
2022-09-20T20:22:14.162Z,8.12
2022-09-20T20:25:00.902Z,8.14
2022-09-20T20:27:28.446Z,8.15
2022-09-20T20:29:55.788Z,8.18
2022-09-20T20:32:22.513Z,8.16
2022-09-20T20:34:49.071Z,8.14
2022-09-20T20:37:16.116Z,8.24
2022-09-20T20:39:42.590Z,8.23
2022-09-20T20:42:11.937Z,8.25
2022-09-20T20:44:38.351Z,8.27
2022-09-20T20:47:06.370Z,8.25
2022-09-20T20:49:33.337Z,8.15
2022-09-20T20:52:04.299Z,8.17
2022-09-20T20:54:31.790Z,8.13
2022-09-20T20:56:59.152Z,8.01
2022-09-20T20:59:25.702Z,8.05
2022-09-20T21:01:52.156Z,7.96
2022-09-20T21:04:18.678Z,7.90
2022-09-20T21:06:45.113Z,7.89
2022-09-20T21:09:11.973Z,7.85
2022-09-20T21:11:44.152Z,7.92
2022-09-20T21:14:12.675Z,7.90
2022-09-20T21:16:45.069Z,7.82
2022-09-20T21:19:15.006Z,7.80
2022-09-20T21:21:43.206Z,7.77
2022-09-20T21:24:12.224Z,7.76
2022-09-20T21:26:40.067Z,7.70
2022-09-20T21:29:11.117Z,7.72
2022-09-20T21:31:39.992Z,7.68
2022-09-20T21:34:08.753Z,7.64
2022-09-20T21:36:36.276Z,7.57
2022-09-20T21:39:03.325Z,7.52
2022-09-20T21:41:32.153Z,7.46
2022-09-20T21:44:00.395Z,7.42
2022-09-20T21:46:32.576Z,7.42
2022-09-20T21:49:01.586Z,7.38
2022-09-20T21:51:31.158Z,7.35
2022-09-20T21:54:01.421Z,7.34
2022-09-20T21:56:33.663Z,7.21
2022-09-20T21:59:02.146Z,7.23
2022-09-20T22:01:30.319Z,7.25
2022-09-20T22:04:01.122Z,7.22
2022-09-20T22:06:33.718Z,7.21
2022-09-20T22:09:05.851Z,7.16
2022-09-20T22:11:36.023Z,7.12
2022-09-20T22:14:02.422Z,7.09
2022-09-20T22:16:33.352Z,6.99
2022-09-20T22:19:00.520Z,7.03
2022-09-20T22:21:34.355Z,7.06
2022-09-20T22:24:03.039Z,7.05
2022-09-20T22:26:32.469Z,7.04
2022-09-20T22:28:59.181Z,6.93
2022-09-20T22:31:28.554Z,6.98
2022-09-20T22:33:57.909Z,6.84
2022-09-20T22:36:26.771Z,6.86
2022-09-20T22:38:53.709Z,6.83
2022-09-20T22:41:21.035Z,6.87
2022-09-20T22:43:47.713Z,6.84
2022-09-20T22:46:20.392Z,6.87
2022-09-20T22:48:47.366Z,6.65
2022-09-20T22:51:16.711Z,6.65
2022-09-20T22:53:43.785Z,6.56
2022-09-20T22:56:13.469Z,6.46
2022-09-20T22:58:42.221Z,6.58
2022-09-20T23:01:10.616Z,6.60
2022-09-20T23:03:42.497Z,6.61
2022-09-20T23:06:17.732Z,6.53
2022-09-20T23:08:44.217Z,6.43
2022-09-20T23:11:10.909Z,6.48
2022-09-20T23:13:37.414Z,6.43
2022-09-20T23:16:15.581Z,6.38
2022-09-20T23:18:42.167Z,6.45
2022-09-20T23:21:08.668Z,6.41
2022-09-20T23:23:36.504Z,6.24
2022-09-20T23:26:07.392Z,6.24
2022-09-20T23:28:35.620Z,6.17
2022-09-20T23:31:08.010Z,6.17
2022-09-20T23:33:35.162Z,6.10
2022-09-20T23:36:03.483Z,6.09
2022-09-20T23:38:29.923Z,6.03
2022-09-20T23:41:01.405Z,5.92
2022-09-20T23:43:27.819Z,5.90
2022-09-20T23:45:54.314Z,5.91
2022-09-20T23:48:20.742Z,5.85
2022-09-20T23:50:47.161Z,5.88
2022-09-20T23:53:13.546Z,5.83
2022-09-20T23:55:39.987Z,5.75
2022-09-20T23:58:06.378Z,5.72
